.
WxDataArchive / Data Records for 2008-07-21
2008-07-20 July 2008 2008-07-22

Data Records for Monday, 21 July 2008

Time	Temp	Chill	HIndex	Humid	Dewpt	 Wind 	HiWind	WindDir	Rain 	Barom 
-----	----	-----	------	-----	-----	------	------	-------	-----	----- 
00:00	71.3	71.3	71.3	92	68.8	0	0	---	0.00	29.848 
00:05	71.1	71.1	71.1	92	68.7	0	0	---	0.00	29.850 
00:10	70.9	70.9	70.9	92	68.5	0	0	---	0.00	29.853 
00:15	70.9	70.9	70.9	92	68.5	0	0	---	0.00	29.849 
00:20	70.8	70.8	70.8	93	68.7	0	0	---	0.00	29.848 
00:25	70.8	70.8	70.8	93	68.7	0	0	---	0.00	29.846 
00:30	70.8	70.8	70.8	93	68.7	0	0	---	0.00	29.845 
00:35	70.6	70.6	70.6	93	68.5	0	0	---	0.00	29.846 
00:40	70.4	70.4	70.4	93	68.3	0	0	---	0.00	29.846 
00:45	70.4	70.4	70.4	93	68.3	0	0	---	0.00	29.846 
00:50	70.3	70.3	70.3	94	68.5	0	0	---	0.00	29.845 
00:55	70.3	70.3	70.3	94	68.5	0	0	---	0.00	29.846 
01:00	70.1	70.1	70.1	94	68.3	0	0	---	0.00	29.846 
01:05	69.9	69.9	69.9	94	68.1	0	0	---	0.00	29.842 
01:10	69.9	69.9	69.9	94	68.1	0	0	---	0.00	29.844 
01:15	69.8	69.8	69.8	94	68.0	0	0	---	0.00	29.840 
01:20	69.8	69.8	69.8	94	68.0	0	0	---	0.00	29.842 
01:25	69.8	69.8	69.8	94	68.0	0	0	---	0.00	29.846 
01:30	69.6	69.6	69.6	94	67.8	0	0	---	0.00	29.846 
01:35	69.6	69.6	69.6	94	67.8	0	0	---	0.00	29.845 
01:40	69.6	69.6	69.6	95	68.1	0	0	---	0.00	29.841 
01:45	69.6	69.6	69.6	95	68.1	0	0	---	0.00	29.842 
01:50	69.6	69.6	69.6	95	68.1	0	0	---	0.00	29.842 
01:55	69.4	69.4	69.4	95	67.9	0	0	---	0.00	29.841 
02:00	69.4	69.4	69.4	95	67.9	0	0	---	0.00	29.840 
02:05	69.4	69.4	69.4	95	67.9	0	0	---	0.00	29.840 
02:10	69.3	69.3	69.3	95	67.8	0	0	---	0.00	29.844 
02:15	69.1	69.1	69.1	95	67.6	0	0	---	0.00	29.842 
02:20	69.1	69.1	69.1	95	67.6	0	0	---	0.00	29.843 
02:25	68.9	68.9	68.9	95	67.4	0	0	---	0.00	29.842 
02:30	68.9	68.9	68.9	95	67.4	0	0	---	0.00	29.840 
02:35	68.8	68.8	68.8	95	67.3	0	0	---	0.00	29.839 
02:40	68.6	68.6	68.6	95	67.1	0	0	---	0.00	29.840 
02:45	68.6	68.6	68.6	95	67.1	0	0	---	0.00	29.837 
02:50	68.6	68.6	68.6	95	67.1	0	0	---	0.00	29.833 
02:55	68.8	68.8	68.8	95	67.3	0	0	---	0.00	29.833 
03:00	68.8	68.8	68.8	96	67.6	0	0	---	0.00	29.834 
03:05	68.6	68.6	68.6	96	67.4	0	0	---	0.00	29.834 
03:10	68.6	68.6	68.6	95	67.1	0	0	---	0.00	29.834 
03:15	68.6	68.6	68.6	96	67.4	0	0	---	0.00	29.833 
03:20	68.8	68.8	68.8	96	67.6	0	0	---	0.00	29.832 
03:25	68.8	68.8	68.8	96	67.6	0	0	---	0.00	29.831 
03:30	68.8	68.8	68.8	96	67.6	0	0	---	0.00	29.832 
03:35	68.9	68.9	68.9	96	67.7	0	0	---	0.00	29.831 
03:40	69.1	69.1	69.1	96	67.9	0	0	---	0.00	29.832 
03:45	69.1	69.1	69.1	96	67.9	0	0	---	0.00	29.831 
03:50	68.9	68.9	68.9	96	67.7	0	0	---	0.00	29.832 
03:55	68.9	68.9	68.9	96	67.7	0	0	---	0.00	29.834 
04:00	68.8	68.8	68.8	96	67.6	0	0	---	0.00	29.833 
04:05	68.8	68.8	68.8	96	67.6	0	0	---	0.00	29.833 
04:10	68.6	68.6	68.6	96	67.4	0	0	---	0.00	29.836 
04:15	68.6	68.6	68.6	96	67.4	0	0	---	0.00	29.838 
04:20	68.6	68.6	68.6	96	67.4	0	0	---	0.00	29.838 
04:25	68.4	68.4	68.4	96	67.2	0	0	---	0.00	29.844 
04:30	68.4	68.4	68.4	96	67.2	0	0	---	0.00	29.849 
04:35	68.3	68.3	68.3	96	67.1	0	0	---	0.00	29.846 
04:40	68.3	68.3	68.3	96	67.1	0	0	---	0.00	29.843 
04:45	68.3	68.3	68.3	96	67.1	0	0	---	0.00	29.847 
04:50	68.3	68.3	68.3	96	67.1	0	0	---	0.00	29.844 
04:55	68.3	68.3	68.3	96	67.1	0	0	---	0.00	29.848 
05:00	68.4	68.4	68.4	96	67.2	0	0	---	0.00	29.843 
05:05	68.8	68.8	68.8	96	67.6	0	0	---	0.00	29.842 
05:10	69.1	69.1	69.1	96	67.9	0	0	---	0.00	29.844 
05:15	69.4	69.4	69.4	96	68.2	0	1	292	0.00	29.846 
05:20	69.6	69.6	69.6	96	68.4	0	1	---	0.00	29.843 
05:25	69.8	69.8	69.8	96	68.6	0	0	---	0.00	29.846 
05:30	69.9	69.9	69.9	96	68.7	0	0	---	0.00	29.846 
05:35	70.1	70.1	70.1	96	68.9	0	1	292	0.00	29.847 
05:40	70.3	70.3	70.3	96	69.1	0	1	292	0.00	29.846 
05:45	70.4	70.4	70.4	96	69.2	0	1	292	0.00	29.850 
05:50	70.6	70.6	70.6	97	69.7	0	1	292	0.00	29.849 
05:55	70.6	70.6	70.6	97	69.7	0	1	292	0.00	29.850 
06:00	70.8	70.8	70.8	97	69.9	0	1	292	0.00	29.852 
06:05	70.9	70.9	70.9	97	70.0	0	3	292	0.00	29.853 
06:10	70.9	70.9	70.9	97	70.0	0	1	292	0.00	29.853 
06:15	71.1	71.1	71.1	97	70.2	0	1	292	0.00	29.855 
06:20	71.1	71.1	71.1	97	70.2	0	2	292	0.00	29.857 
06:25	71.1	71.1	71.1	97	70.2	0	1	292	0.00	29.856 
06:30	71.3	71.3	71.3	97	70.4	0	1	292	0.00	29.860 
06:35	71.3	71.3	71.3	97	70.4	0	2	292	0.00	29.860 
06:40	71.3	71.3	71.3	97	70.4	1	3	292	0.00	29.862 
06:45	71.5	71.5	71.5	97	70.6	0	1	270	0.00	29.860 
06:50	71.6	71.6	71.6	97	70.7	0	1	270	0.00	29.862 
06:55	71.6	71.6	71.6	97	70.7	0	1	270	0.00	29.860 
07:00	71.6	71.6	71.6	97	70.7	0	1	270	0.00	29.858 
07:05	71.8	71.8	71.8	97	70.9	0	1	270	0.00	29.858 
07:10	72.0	72.0	72.0	97	71.1	0	1	270	0.00	29.852 
07:15	72.3	72.3	72.3	97	71.4	0	1	270	0.00	29.851 
07:20	72.3	72.3	72.3	97	71.4	0	1	270	0.00	29.850 
07:25	72.5	72.5	72.5	97	71.6	0	1	270	0.00	29.853 
07:30	72.8	72.8	72.8	97	71.9	0	1	270	0.00	29.852 
07:35	72.8	72.8	72.8	96	71.6	1	3	270	0.00	29.853 
07:40	73.2	73.2	73.2	96	72.0	0	1	248	0.00	29.852 
07:45	73.7	73.7	73.7	96	72.5	0	2	248	0.00	29.849 
07:50	74.0	74.0	74.0	96	72.8	0	1	248	0.00	29.852 
07:55	74.4	74.4	74.4	95	72.9	0	2	248	0.00	29.855 
08:00	74.7	74.7	74.7	94	72.9	0	2	248	0.00	29.857 
08:05	75.1	75.1	73.8	93	72.9	0	1	248	0.00	29.859 
08:10	75.6	75.6	75.0	92	73.1	0	1	248	0.00	29.860 
08:15	76.0	76.0	76.2	89	72.5	1	2	248	0.00	29.861 
08:20	76.3	76.3	76.9	87	72.1	1	3	248	0.00	29.864 
08:25	76.8	76.8	78.0	86	72.3	0	2	248	0.00	29.863 
08:30	77.2	77.2	78.8	85	72.3	0	2	248	0.00	29.862 
08:35	77.6	77.6	79.6	82	71.7	1	3	248	0.00	29.864 
08:40	77.7	77.7	79.8	82	71.8	1	2	248	0.00	29.870 
08:45	77.7	77.7	79.8	82	71.8	0	3	248	0.00	29.870 
08:50	77.7	77.7	79.8	81	71.4	1	3	248	0.00	29.872 
08:55	77.7	77.7	79.8	81	71.4	1	2	248	0.00	29.871 
09:00	77.9	77.9	80.1	81	71.6	1	2	248	0.00	29.873 
09:05	78.3	78.3	80.8	80	71.6	1	3	248	0.00	29.876 
09:10	78.6	78.6	81.4	80	71.9	1	2	248	0.00	29.878 
09:15	78.8	78.8	81.7	79	71.7	1	3	248	0.00	29.881 
09:20	78.8	78.8	81.8	80	72.1	1	3	315	0.00	29.883 
09:25	78.6	78.6	81.4	79	71.5	1	3	270	0.00	29.883 
09:30	78.5	78.5	81.2	79	71.4	2	4	292	0.00	29.889 
09:35	78.3	78.3	80.8	79	71.2	2	5	292	0.00	29.893 
09:40	78.3	78.3	80.8	80	71.6	2	4	292	0.00	29.894 
09:45	78.5	78.5	81.3	81	72.2	1	3	292	0.00	29.894 
09:50	78.6	78.6	81.4	80	71.9	1	4	292	0.00	29.895 
09:55	78.8	78.8	81.8	80	72.1	1	3	338	0.00	29.902 
10:00	78.8	78.8	81.7	79	71.7	2	5	270	0.00	29.908 
10:05	79.0	79.0	82.1	79	71.9	2	4	270	0.00	29.910 
10:10	79.4	79.4	82.7	77	71.5	2	3	270	0.00	29.914 
10:15	79.2	79.2	82.3	77	71.3	2	3	270	0.00	29.915 
10:20	79.0	79.0	82.1	79	71.9	1	3	270	0.00	29.913 
10:25	79.0	79.0	82.1	79	71.9	1	3	270	0.00	29.916 
10:30	79.0	79.0	82.0	78	71.5	2	4	270	0.00	29.919 
10:35	78.8	78.8	81.7	78	71.3	1	4	248	0.00	29.918 
10:40	78.6	78.6	81.4	80	71.9	2	4	248	0.01	29.927 
10:45	77.7	77.7	79.8	84	72.5	1	4	270	0.02	29.921 
10:50	76.7	76.7	77.8	85	71.8	2	5	270	0.00	29.914 
10:55	76.5	76.5	77.3	87	72.3	1	3	248	0.00	29.921 
11:00	76.3	76.3	76.8	88	72.5	1	4	248	0.00	29.924 
11:05	76.1	76.1	76.5	88	72.3	1	3	248	0.00	29.924 
11:10	76.1	76.1	76.5	88	72.3	2	5	248	0.00	29.920 
11:15	76.0	76.0	76.3	88	72.2	3	6	270	0.01	29.927 
11:20	75.6	75.6	75.4	89	72.1	2	4	248	0.02	29.929 
11:25	75.1	75.1	74.4	89	71.6	1	5	248	0.01	29.917 
11:30	73.5	73.5	73.5	86	69.0	1	4	248	0.00	29.905 
11:35	72.8	72.8	72.8	86	68.4	0	2	248	0.01	29.903 
11:40	72.3	72.3	72.3	88	68.5	0	1	248	0.00	29.905 
11:45	72.3	72.3	72.3	89	68.9	1	3	180	0.00	29.864 
11:50	72.5	72.5	72.5	89	69.1	2	3	112	0.01	29.810 
11:55	72.7	72.7	72.7	90	69.6	2	3	90	0.00	29.791 
12:00	73.2	73.2	73.2	90	70.1	1	4	90	0.00	29.774 
12:05	73.7	73.7	73.7	89	70.2	2	6	90	0.00	29.766 
12:10	73.9	73.9	73.9	89	70.4	1	4	112	0.00	29.759 
12:15	74.0	74.0	74.0	88	70.2	0	2	112	0.00	29.759 
12:20	74.6	74.6	74.6	88	70.8	1	4	112	0.00	29.756 
12:25	74.9	74.9	74.9	88	71.1	0	3	112	0.00	29.760 
12:30	75.3	75.3	75.2	86	70.8	1	3	112	0.00	29.767 
12:35	75.6	75.6	75.8	86	71.1	1	3	112	0.00	29.776 
12:40	76.0	76.0	76.5	86	71.5	0	2	112	0.00	29.777 
12:45	76.5	76.5	77.5	84	71.3	1	3	135	0.00	29.786 
12:50	77.0	77.0	78.4	84	71.8	1	4	270	0.00	29.789 
12:55	77.6	77.6	79.6	82	71.7	1	5	90	0.00	29.784 
13:00	77.9	77.9	80.1	78	70.5	1	3	90	0.00	29.788 
13:05	78.8	78.8	81.7	79	71.7	0	1	90	0.00	29.788 
13:10	79.8	79.8	83.7	79	72.7	0	1	90	0.00	29.791 
13:15	79.8	79.8	83.0	73	70.4	0	2	45	0.00	29.802 
13:20	79.6	79.6	82.6	73	70.2	1	3	45	0.00	29.803 
13:25	79.8	79.8	83.0	73	70.4	1	4	22	0.00	29.813 
13:30	80.1	80.1	83.6	74	71.0	0	2	315	0.00	29.819 
13:35	80.3	80.3	83.9	73	70.8	1	3	315	0.00	29.821 
13:40	80.5	80.5	83.9	71	70.2	1	3	22	0.00	29.822 
13:45	80.9	80.9	84.3	69	69.8	1	2	338	0.00	29.823 
13:50	80.9	80.9	83.7	65	68.0	2	4	315	0.00	29.825 
13:55	81.6	81.6	85.1	67	69.6	1	4	315	0.00	29.826 
14:00	82.2	82.2	85.5	64	68.8	2	4	270	0.00	29.826 
14:05	82.8	82.8	86.7	65	69.8	1	3	270	0.00	29.822 
14:10	82.8	82.8	87.0	66	70.3	1	2	270	0.00	29.827 
14:15	82.6	82.6	85.9	63	68.7	1	2	292	0.00	29.829 
14:20	82.4	82.4	86.1	65	69.4	1	2	292	0.00	29.831 
14:25	82.2	82.2	85.3	63	68.3	1	3	202	0.00	29.832 
14:30	82.6	82.6	84.9	58	66.3	1	5	270	0.00	29.830 
14:35	82.4	82.4	84.6	58	66.1	2	4	315	0.00	29.828 
14:40	82.4	82.4	84.8	59	66.6	1	2	315	0.00	29.822 
14:45	82.8	82.8	85.0	57	66.0	1	3	315	0.00	29.820 
14:50	83.4	83.4	85.6	56	66.0	1	3	292	0.00	29.819 
14:55	83.4	83.4	85.4	55	65.5	1	2	292	0.00	29.819 
15:00	83.8	83.8	86.7	58	67.4	0	3	292	0.00	29.817 
15:05	84.0	84.0	86.0	54	65.5	2	4	248	0.00	29.820 
15:10	84.1	84.1	86.2	54	65.6	1	3	292	0.00	29.820 
15:15	84.3	84.3	86.5	54	65.8	1	3	270	0.00	29.823 
15:20	84.1	84.1	85.5	51	64.0	1	3	270	0.00	29.825 
15:25	84.3	84.3	86.2	53	65.3	1	3	270	0.00	29.828 
15:30	84.5	84.5	86.3	52	64.9	1	3	270	0.00	29.827 
15:35	84.7	84.7	86.0	50	64.0	1	3	270	0.00	29.830 
15:40	84.5	84.5	85.6	49	63.2	1	3	315	0.00	29.832 
15:45	84.7	84.7	86.8	53	65.6	1	3	315	0.00	29.831 
15:50	84.7	84.7	86.0	50	64.0	1	4	292	0.00	29.833 
15:55	84.7	84.7	86.3	51	64.5	1	3	292	0.00	29.832 
16:00	84.7	84.7	86.3	51	64.5	2	4	270	0.00	29.831 
16:05	84.1	84.1	85.7	52	64.5	2	5	270	0.00	29.832 
16:10	84.0	84.0	85.8	53	65.0	2	4	270	0.00	29.832 
16:15	84.1	84.1	85.7	52	64.5	2	4	270	0.00	29.830 
16:20	84.1	84.1	85.7	52	64.5	1	3	270	0.00	29.827 
16:25	83.8	83.8	85.1	51	63.7	1	4	270	0.00	29.827 
16:30	84.1	84.1	85.5	51	64.0	1	3	270	0.00	29.824 
16:35	84.3	84.3	85.7	51	64.2	1	3	248	0.00	29.821 
16:40	84.3	84.3	85.3	49	63.0	1	3	270	0.00	29.821 
16:45	84.5	84.5	86.0	51	64.4	1	4	270	0.00	29.820 
16:50	84.5	84.5	85.8	50	63.8	2	4	248	0.00	29.821 
16:55	84.5	84.5	85.8	50	63.8	1	3	248	0.00	29.820 
17:00	84.5	84.5	85.3	48	62.6	2	4	270	0.00	29.823 
17:05	84.1	84.1	85.0	49	62.8	2	3	248	0.00	29.827 
17:10	84.1	84.1	84.4	46	61.1	2	6	292	0.00	29.830 
17:15	84.1	84.1	84.6	47	61.7	1	3	315	0.00	29.824 
17:20	83.8	83.8	84.7	49	62.6	1	4	315	0.00	29.826 
17:25	83.8	83.8	85.1	51	63.7	1	4	292	0.00	29.825 
17:30	83.8	83.8	85.1	51	63.7	1	3	292	0.00	29.824 
17:35	83.6	83.6	84.4	49	62.4	1	3	315	0.00	29.825 
17:40	83.6	83.6	84.6	50	63.0	1	3	292	0.00	29.821 
17:45	83.4	83.4	84.4	50	62.8	1	3	270	0.00	29.822 
17:50	83.4	83.4	84.2	49	62.2	1	3	315	0.00	29.820 
17:55	83.2	83.2	84.1	50	62.6	1	4	270	0.00	29.823 
18:00	83.0	83.0	83.9	50	62.4	2	4	270	0.00	29.823 
18:05	82.8	82.8	83.7	50	62.2	2	4	270	0.00	29.822 
18:10	82.6	82.6	83.4	50	62.0	2	4	248	0.00	29.828 
18:15	82.4	82.4	83.2	50	61.9	2	4	270	0.00	29.831 
18:20	82.4	82.4	83.2	50	61.9	1	4	315	0.00	29.831 
18:25	82.2	82.2	83.0	50	61.7	1	4	270	0.00	29.833 
18:30	82.2	82.2	83.1	51	62.2	1	4	270	0.00	29.832 
18:35	82.0	82.0	83.1	52	62.6	1	3	270	0.00	29.831 
18:40	82.0	82.0	83.1	52	62.6	1	3	270	0.00	29.833 
18:45	81.8	81.8	83.0	53	63.0	0	2	270	0.00	29.832 
18:50	81.8	81.8	83.2	54	63.5	0	3	270	0.00	29.832 
18:55	81.4	81.4	82.7	54	63.1	1	2	315	0.00	29.832 
19:00	81.2	81.2	82.5	54	62.9	0	2	315	0.00	29.833 
19:05	81.1	81.1	82.5	55	63.4	1	3	315	0.00	29.830 
19:10	80.9	80.9	82.4	56	63.7	0	2	292	0.00	29.829 
19:15	80.5	80.5	82.1	57	63.8	0	2	292	0.00	29.828 
19:20	80.1	80.1	81.7	58	64.0	1	3	292	0.00	29.829 
19:25	79.9	79.9	81.7	60	64.7	1	3	292	0.00	29.832 
19:30	79.8	79.8	81.7	61	65.1	0	2	292	0.00	29.830 
19:35	79.4	79.4	81.5	64	66.1	1	3	292	0.00	29.829 
19:40	79.0	79.0	81.1	66	66.6	1	2	248	0.00	29.829 
19:45	78.6	78.6	80.7	67	66.7	1	2	270	0.00	29.833 
19:50	78.3	78.3	80.3	68	66.8	1	3	315	0.00	29.833 
19:55	77.9	77.9	79.8	68	66.5	1	4	315	0.00	29.836 
20:00	77.6	77.6	79.4	65	64.9	1	3	315	0.00	29.837 
20:05	77.4	77.4	79.2	63	63.8	1	2	270	0.00	29.835 
20:10	77.2	77.2	79.0	62	63.2	0	2	292	0.00	29.839 
20:15	76.8	76.8	78.6	62	62.8	0	1	292	0.00	29.846 
20:20	76.7	76.7	78.5	60	61.7	0	1	292	0.00	29.843 
20:25	76.5	76.5	78.4	59	61.1	0	2	315	0.00	29.841 
20:30	76.3	76.3	78.2	59	60.9	0	3	270	0.00	29.839 
20:35	76.0	76.0	78.0	59	60.6	0	1	292	0.00	29.838 
20:40	75.8	75.8	77.9	60	60.9	0	1	292	0.00	29.843 
20:45	75.8	75.8	77.9	59	60.4	0	3	315	0.00	29.845 
20:50	75.6	75.6	77.8	59	60.2	0	1	315	0.00	29.843 
20:55	75.4	75.4	77.6	60	60.5	0	1	315	0.00	29.847 
21:00	75.4	75.4	77.6	60	60.5	0	2	315	0.00	29.847 
21:05	75.3	75.3	77.5	61	60.9	0	1	315	0.00	29.841 
21:10	74.9	74.9	74.9	62	61.0	0	2	315	0.00	29.836 
21:15	74.7	74.7	74.7	63	61.2	0	1	315	0.00	29.834 
21:20	74.4	74.4	74.4	64	61.4	0	0	---	0.00	29.835 
21:25	74.2	74.2	74.2	65	61.7	0	0	---	0.00	29.835 
21:30	73.9	73.9	73.9	66	61.8	0	0	---	0.00	29.835 
21:35	73.7	73.7	73.7	67	62.0	0	0	---	0.00	29.834 
21:40	73.3	73.3	73.3	68	62.1	0	0	---	0.00	29.833 
21:45	73.0	73.0	73.0	69	62.2	0	0	---	0.00	29.833 
21:50	72.8	72.8	72.8	70	62.4	0	1	315	0.00	29.834 
21:55	72.7	72.7	72.7	71	62.7	0	0	---	0.00	29.832 
22:00	72.7	72.7	72.7	72	63.1	0	1	315	0.00	29.836 
22:05	72.5	72.5	72.5	73	63.3	0	1	315	0.00	29.842 
22:10	72.3	72.3	72.3	73	63.1	0	0	---	0.00	29.840 
22:15	72.3	72.3	72.3	74	63.5	0	1	315	0.00	29.849 
22:20	72.1	72.1	72.1	75	63.7	0	0	---	0.00	29.852 
22:25	72.1	72.1	72.1	76	64.1	0	1	315	0.00	29.854 
22:30	72.1	72.1	72.1	76	64.1	0	1	315	0.00	29.864 
22:35	72.0	72.0	72.0	77	64.4	0	1	315	0.00	29.859 
22:40	71.8	71.8	71.8	78	64.6	0	1	315	0.00	29.862 
22:45	71.8	71.8	71.8	79	64.9	0	1	315	0.00	29.858 
22:50	71.8	71.8	71.8	79	64.9	0	1	315	0.00	29.854 
22:55	71.8	71.8	71.8	80	65.3	0	1	315	0.00	29.854 
23:00	71.8	71.8	71.8	81	65.6	0	1	315	0.00	29.854 
23:05	71.8	71.8	71.8	81	65.6	0	1	315	0.00	29.859 
23:10	71.6	71.6	71.6	81	65.4	0	1	315	0.00	29.857 
23:15	71.6	71.6	71.6	82	65.8	0	1	315	0.00	29.856 
23:20	71.6	71.6	71.6	82	65.8	0	1	315	0.00	29.856 
23:25	71.6	71.6	71.6	82	65.8	0	1	315	0.00	29.857 
23:30	71.6	71.6	71.6	82	65.8	0	1	315	0.00	29.857 
23:35	71.5	71.5	71.5	82	65.7	0	1	315	0.00	29.857 
23:40	71.5	71.5	71.5	82	65.7	0	1	315	0.00	29.856 
23:45	71.3	71.3	71.3	82	65.5	0	1	315	0.00	29.853 
23:50	71.3	71.3	71.3	82	65.5	0	1	315	0.00	29.854 
23:55	71.3	71.3	71.3	82	65.5	0	1	315	0.00	29.858 

CoCoRaHS
IN-AL-39
A2 Web Hosting
Creative Commons License
GoDaddy
Look for:

loaded 2017-10-17 09:41:44 • last modified 2010-11-18 10:43:29
Privacy PolicyDisclaimer
• wx.awcolley.com is powered by PmWiki v.2002016 •
• all content (unless otherwise noted) © 2017 A W Colley